Terminal Aerodrome Forecast
Issued by NWS

Home | Current Version | Previous Version | Text Only | Print | Product List | Glossary On
Versions: 1 2 3 4 5 6 7 8 9 10 11 12 13 14 15 16 17 18
000
FTUS44 KTSA 242300
TAFFYV
TAF
KFYV 242320Z 2500/2524 28010G18KT P6SM SCT013 OVC021
     FM250200 27007KT P6SM SCT030
     FM250500 00000KT P6SM SKC
     FM251600 18007KT P6SM SKC=

USA.gov is the U.S. government's official web portal to all federal, state and local government web resources and services.